createdAt,value
2022-12-23T00:04:01.557Z,4.47
2022-12-23T00:06:29.534Z,4.50
2022-12-23T00:21:37.915Z,4.48
2022-12-23T00:24:06.045Z,4.49
2022-12-23T00:26:33.801Z,4.46
2022-12-23T00:30:09.191Z,4.46
2022-12-23T00:53:29.430Z,4.41
2022-12-23T01:12:35.737Z,4.35
2022-12-23T01:15:18.419Z,4.36
2022-12-23T01:28:40.688Z,4.37
2022-12-23T02:13:08.464Z,4.19
2022-12-23T02:37:46.591Z,4.24
2022-12-23T03:27:21.773Z,4.14
2022-12-23T03:30:59.184Z,4.14
2022-12-23T03:59:32.505Z,4.15
2022-12-23T06:55:11.405Z,3.25
2022-12-23T06:57:38.775Z,3.28
2022-12-23T07:00:08.524Z,3.31
2022-12-23T07:02:36.109Z,3.28
2022-12-23T07:05:03.599Z,3.30
2022-12-23T07:07:32.831Z,3.24
2022-12-23T07:09:59.926Z,3.27
2022-12-23T07:12:27.372Z,3.31
2022-12-23T07:36:40.033Z,3.44
2022-12-23T07:39:07.595Z,3.43
2022-12-23T07:41:35.012Z,3.44
2022-12-23T07:44:08.796Z,3.45
2022-12-23T07:46:36.046Z,3.45
2022-12-23T07:49:03.515Z,3.47
2022-12-23T07:51:31.746Z,3.48
2022-12-23T07:53:59.271Z,3.51
2022-12-23T07:56:26.478Z,3.53
2022-12-23T07:58:54.461Z,3.56
2022-12-23T08:01:23.087Z,3.58
2022-12-23T08:03:50.519Z,3.59
2022-12-23T08:06:17.838Z,3.59
2022-12-23T08:08:46.637Z,3.61
2022-12-23T08:11:15.782Z,3.61
2022-12-23T08:13:45.711Z,3.61
2022-12-23T08:16:12.999Z,3.62
2022-12-23T08:18:42.074Z,3.65
2022-12-23T09:19:09.697Z,4.05
2022-12-23T09:21:55.643Z,4.09
2022-12-23T09:24:23.053Z,4.11
2022-12-23T09:26:50.719Z,4.13
2022-12-23T09:29:18.034Z,4.15
2022-12-23T09:31:45.515Z,4.19
2022-12-23T09:34:12.983Z,4.22
2022-12-23T09:36:40.463Z,4.25
2022-12-23T09:39:07.847Z,4.30
2022-12-23T09:41:50.967Z,4.32
2022-12-23T09:44:57.298Z,4.33
2022-12-23T09:47:29.626Z,4.36
2022-12-23T09:50:03.009Z,4.36
2022-12-23T09:53:00.730Z,4.36
2022-12-23T10:00:34.332Z,4.38
2022-12-23T10:04:04.426Z,4.43
2022-12-23T10:06:34.609Z,4.47
2022-12-23T10:09:05.465Z,4.56
2022-12-23T10:11:41.029Z,4.62
2022-12-23T10:14:29.332Z,4.68
2022-12-23T10:17:04.985Z,4.76
2022-12-23T10:19:42.126Z,4.83
2022-12-23T10:22:40.245Z,4.86
2022-12-23T10:25:22.806Z,4.89
2022-12-23T10:27:50.315Z,4.92
2022-12-23T10:33:16.776Z,5.08
2022-12-23T10:36:15.502Z,5.15
2022-12-23T10:39:31.615Z,5.16
2022-12-23T11:14:32.941Z,5.53
2022-12-23T11:17:49.746Z,5.54
2022-12-23T11:20:20.210Z,5.57
2022-12-23T11:27:27.599Z,5.59
2022-12-23T11:29:55.247Z,5.59
2022-12-23T11:32:28.838Z,5.58
2022-12-23T11:36:47.778Z,5.63
2022-12-23T11:39:25.227Z,5.62
2022-12-23T11:42:19.539Z,5.63
2022-12-23T11:44:52.426Z,5.66
2022-12-23T11:47:22.617Z,5.71
2022-12-23T11:54:23.450Z,5.81
2022-12-23T11:56:53.682Z,5.86
2022-12-23T11:59:37.077Z,5.92
2022-12-23T12:02:20.640Z,5.96
2022-12-23T12:09:06.894Z,6.09
2022-12-23T12:12:21.960Z,6.14
2022-12-23T12:14:56.595Z,6.13
2022-12-23T12:17:49.271Z,6.17
2022-12-23T12:20:29.022Z,6.17
2022-12-23T12:23:04.785Z,6.18
2022-12-23T12:25:52.761Z,6.20
2022-12-23T12:28:26.015Z,6.24
2022-12-23T12:31:03.640Z,6.28
2022-12-23T12:34:01.874Z,6.31
2022-12-23T12:36:48.985Z,6.41
2022-12-23T12:39:28.166Z,6.42
2022-12-23T12:42:11.716Z,6.44
2022-12-23T12:45:09.944Z,6.45
2022-12-23T12:47:57.851Z,6.49
2022-12-23T12:50:36.348Z,6.53
2022-12-23T12:53:17.780Z,6.57
2022-12-23T12:55:53.001Z,6.64
2022-12-23T12:58:23.826Z,6.68
2022-12-23T13:01:09.534Z,6.71
2022-12-23T13:04:22.361Z,6.73
2022-12-23T13:07:15.758Z,6.75
2022-12-23T13:10:39.751Z,6.78
2022-12-23T13:14:07.534Z,6.80
2022-12-23T13:17:00.396Z,6.82
2022-12-23T13:19:58.048Z,6.83
2022-12-23T13:22:34.128Z,6.84
2022-12-23T13:25:20.473Z,6.88
2022-12-23T13:28:17.382Z,6.89
2022-12-23T13:31:06.436Z,6.92
2022-12-23T13:34:02.229Z,6.94
2022-12-23T13:37:20.210Z,6.93
2022-12-23T13:40:29.164Z,6.93
2022-12-23T13:43:21.563Z,6.93
2022-12-23T13:45:53.320Z,6.93
2022-12-23T13:48:55.811Z,6.95
2022-12-23T13:52:23.254Z,6.91
2022-12-23T13:55:08.740Z,6.91
2022-12-23T13:58:03.878Z,6.91
2022-12-23T14:00:34.404Z,6.91
2022-12-23T14:03:01.661Z,6.90
2022-12-23T14:06:29.071Z,6.87
2022-12-23T14:08:56.369Z,6.86
2022-12-23T14:11:34.376Z,6.84
2022-12-23T14:14:17.579Z,6.83
2022-12-23T14:57:17.279Z,6.48
2022-12-23T15:00:05.800Z,6.47
2022-12-23T15:02:41.222Z,6.46
2022-12-23T15:05:10.246Z,6.45
2022-12-23T15:07:42.138Z,6.42
2022-12-23T15:10:18.639Z,6.38
2022-12-23T15:12:57.730Z,6.37
2022-12-23T15:15:30.657Z,6.38
2022-12-23T15:18:15.862Z,6.36
2022-12-23T15:20:43.288Z,6.33
2022-12-23T15:23:16.056Z,6.31
2022-12-23T15:25:48.759Z,6.30
2022-12-23T15:28:21.615Z,6.27
2022-12-23T15:30:54.831Z,6.25
2022-12-23T15:36:20.281Z,6.18
2022-12-23T15:38:47.773Z,6.16
2022-12-23T15:41:18.526Z,6.12
2022-12-23T15:43:45.878Z,6.09
2022-12-23T15:46:29.015Z,6.04
2022-12-23T15:48:57.927Z,6.01
2022-12-23T15:52:06.555Z,5.99
2022-12-23T15:54:30.051Z,5.95
2022-12-23T15:57:01.725Z,5.95
2022-12-23T15:59:37.949Z,5.92
2022-12-23T16:02:59.025Z,5.91
2022-12-23T16:05:13.339Z,5.92
2022-12-23T16:07:42.429Z,5.91
2022-12-23T16:13:44.903Z,5.85
2022-12-23T16:16:32.785Z,5.82
2022-12-23T16:19:00.585Z,5.78
2022-12-23T17:44:33.033Z,5.22
2022-12-23T19:36:38.738Z,4.72
2022-12-23T19:39:06.387Z,4.72
2022-12-23T19:41:33.435Z,4.72
2022-12-23T19:49:19.208Z,4.67
2022-12-23T19:51:47.350Z,4.66
2022-12-23T19:54:15.079Z,4.64
2022-12-23T19:56:42.416Z,4.63
2022-12-23T19:59:09.856Z,4.63
2022-12-23T20:01:37.038Z,4.63
2022-12-23T20:04:04.619Z,4.63
2022-12-23T20:06:34.739Z,4.61
2022-12-23T20:09:06.314Z,4.60
2022-12-23T20:11:37.539Z,4.57
2022-12-23T20:14:06.811Z,4.55
2022-12-23T20:16:35.558Z,4.52
2022-12-23T20:19:05.282Z,4.52
2022-12-23T20:21:34.100Z,4.52
2022-12-23T20:24:01.806Z,4.49
2022-12-23T20:26:29.211Z,4.49
2022-12-23T20:28:57.547Z,4.49
2022-12-23T20:31:28.855Z,4.47
2022-12-23T20:33:57.954Z,4.46
2022-12-23T20:36:29.840Z,4.45
2022-12-23T20:38:57.979Z,4.42
2022-12-23T20:41:28.506Z,4.41
2022-12-23T20:44:32.486Z,4.41
2022-12-23T20:46:43.965Z,4.38
2022-12-23T20:49:11.299Z,4.37
2022-12-23T20:51:38.350Z,4.34
2022-12-23T20:54:05.764Z,4.27
2022-12-23T20:56:32.863Z,4.27
2022-12-23T20:59:02.463Z,4.26
2022-12-23T21:01:35.744Z,4.27
2022-12-23T21:04:07.443Z,4.29
2022-12-23T21:06:36.117Z,4.27
2022-12-23T21:09:07.937Z,4.23
2022-12-23T21:11:39.145Z,4.17
2022-12-23T21:14:07.813Z,4.16
2022-12-23T21:16:38.328Z,4.14
2022-12-23T21:19:25.625Z,4.08
2022-12-23T21:21:53.724Z,4.04
2022-12-23T21:24:21.465Z,3.98
2022-12-23T21:26:56.529Z,3.94
2022-12-23T21:29:26.113Z,3.93
2022-12-23T21:31:53.526Z,3.90
2022-12-23T21:34:21.012Z,3.93
2022-12-23T21:36:48.172Z,3.96
2022-12-23T21:39:16.876Z,3.99
2022-12-23T21:41:44.246Z,3.98
2022-12-23T21:44:15.650Z,3.98
2022-12-23T21:46:42.937Z,4.00
2022-12-23T21:49:10.957Z,4.04
2022-12-23T21:51:40.837Z,4.06
2022-12-23T21:54:11.434Z,4.02
2022-12-23T21:56:40.650Z,4.01
2022-12-23T21:59:14.836Z,4.01
2022-12-23T22:01:42.907Z,4.01
2022-12-23T22:04:10.623Z,4.01
2022-12-23T22:06:43.634Z,4.00
2022-12-23T22:09:16.076Z,3.97
2022-12-23T22:11:43.946Z,3.98
2022-12-23T22:14:16.636Z,4.00
2022-12-23T22:16:44.076Z,3.96
2022-12-23T22:19:12.475Z,3.91
2022-12-23T22:21:39.773Z,3.94
2022-12-23T22:24:07.635Z,3.88
2022-12-23T22:26:35.928Z,3.93
2022-12-23T22:29:06.407Z,3.95
2022-12-23T22:31:42.441Z,3.97
2022-12-23T22:34:19.210Z,3.96
2022-12-23T22:36:49.462Z,3.94
2022-12-23T22:39:21.983Z,3.94
2022-12-23T22:41:52.929Z,3.95
2022-12-23T22:44:22.256Z,3.95
2022-12-23T22:46:51.328Z,3.92
2022-12-23T22:49:46.037Z,3.94
2022-12-23T22:52:14.272Z,3.94
2022-12-23T22:54:41.939Z,3.93
2022-12-23T22:57:11.376Z,3.93
2022-12-23T22:59:38.982Z,3.95
2022-12-23T23:02:06.262Z,3.91
2022-12-23T23:04:33.946Z,3.87
2022-12-23T23:07:01.380Z,3.89
2022-12-23T23:09:28.934Z,3.89
2022-12-23T23:11:56.185Z,3.89
2022-12-23T23:14:23.543Z,3.87
2022-12-23T23:16:51.148Z,3.87
2022-12-23T23:19:20.556Z,3.89
2022-12-23T23:21:48.790Z,3.89
2022-12-23T23:24:16.163Z,3.91
2022-12-23T23:26:43.291Z,3.90
2022-12-23T23:29:10.591Z,3.92
2022-12-23T23:31:42.929Z,3.93
2022-12-23T23:34:12.709Z,3.92
2022-12-23T23:36:40.505Z,3.91
2022-12-23T23:39:11.059Z,3.92
2022-12-23T23:41:38.446Z,3.93
2022-12-23T23:44:05.734Z,3.92
2022-12-23T23:46:34.372Z,3.93
2022-12-23T23:49:02.072Z,3.93
2022-12-23T23:51:29.458Z,3.94
2022-12-23T23:53:56.811Z,3.94
2022-12-23T23:56:26.186Z,3.94
2022-12-23T23:58:54.651Z,3.94
